Aérodrome :
LOGIN :

S'inscrire | Disclaimer

   EN    FR    IT 

 










Légende :    VFR   VFR Marginal   IFR   IFR Intensif   IFR Très Intensif
Visi : 
Plafond : 
>= 8 km
>= 3000ft
5 à 8 km
1000 à 3000 ft
1500m à 5 km
500 à 1000 ft
800 à 1500m
200 à 500 ft
< 800m
< 200 ft
Symboles :   Orages  Brouillard  Fortes neiges  Fortes précipitations  Vent > 20 kt
SIGMETs :   Divers  Orages  Givrage  Turbulence  Onde Orograph.  Cendres Volcan.







- Altitude de l'aérodrome : 200 ft


EBBL - Klein Brogel AB

DERNIER METAR :
  • 181925Z AUTO 13004KT 9999 FEW140/// BKN170/// BKN190/// 04/02 Q1013 BLU

METARs EXPIRÉS :
  • 181855Z AUTO 12005KT 9999 BKN140/// BKN190/// 05/02 Q1013 BLU
  • 181825Z 11004KT 9999 FEW150 BKN190 05/02 Q1014 BLU BLU
  • 181755Z 12003KT 9999 FEW150 BKN190 05/02 Q1014 BLU BLU
  • 181725Z 11003KT 9999 FEW150 BKN190 05/02 Q1015 BLU BLU

TAF TAF EBBL
Valide du 18 à 19h jusqu'au 19 à 07h UTC


181541Z 1819/1907 14007KT 9999 BKN130 BKN200
BECMG 1900/1902 20011KT 6000 -RA BKN022 BKN030
TEMPO 1903/1907 3000 RA BKN010 BKN018
Pas de NOTAMs connus pour ce terrain.



MET'MAP, la Météo Aéronautique d'un coup d'oeil ! - Copyright ORBIFLY Décembre 2007 - Disclaimer

ORBIFLY MET'MAP TEAM :

Programmation & Développement : Alexandra Zaïnal
Conception & Développement : Baudouin d'Aumeries
Co-Programmation & Développement : Marc-Olivier Méhu
Soutien technique & logistique : Manuel Goepfert

Contact : metmap@orbifly.com




SOURCES & CREDITS :

   NOAA